createdAt,value
2019-04-13T00:03:22.583Z,6.27
2019-04-13T00:08:30.549Z,7.07
2019-04-13T00:13:38.352Z,5.77
2019-04-13T00:18:44.819Z,6.87
2019-04-13T00:23:51.855Z,7.37
2019-04-13T00:28:58.193Z,5.47
2019-04-13T00:34:04.338Z,6.70
2019-04-13T00:39:10.733Z,7.27
2019-04-13T00:44:17.012Z,7.10
2019-04-13T00:49:25.533Z,6.93
2019-04-13T00:54:31.364Z,7.33
2019-04-13T00:59:38.050Z,6.47
2019-04-13T01:04:53.083Z,5.80
2019-04-13T01:09:50.949Z,5.67
2019-04-13T01:14:56.652Z,6.63
2019-04-13T01:20:02.512Z,6.77
2019-04-13T01:25:09.149Z,6.57
2019-04-13T01:30:15.413Z,7.43
2019-04-13T01:35:20.897Z,6.00
2019-04-13T01:40:26.975Z,6.43
2019-04-13T01:45:32.947Z,6.13
2019-04-13T01:50:38.419Z,5.70
2019-04-13T01:55:48.059Z,5.60
2019-04-13T02:01:21.290Z,6.70
2019-04-13T02:06:27.892Z,5.83
2019-04-13T02:11:40.364Z,6.30
2019-04-13T02:16:46.170Z,5.93
2019-04-13T02:21:51.754Z,6.47
2019-04-13T02:26:58.513Z,6.07
2019-04-13T02:32:04.798Z,6.33
2019-04-13T02:37:11.169Z,5.83
2019-04-13T02:42:17.571Z,5.90
2019-04-13T02:47:24.885Z,5.67
2019-04-13T02:52:32.426Z,5.70
2019-04-13T02:57:37.821Z,5.60
2019-04-13T03:02:43.243Z,5.80
2019-04-13T03:07:48.628Z,6.07
2019-04-13T03:12:54.796Z,6.63
2019-04-13T03:18:06.858Z,6.30
2019-04-13T03:23:12.524Z,6.17
2019-04-13T03:28:18.420Z,6.60
2019-04-13T03:33:24.562Z,5.30
2019-04-13T03:38:30.012Z,5.23
2019-04-13T03:43:35.851Z,7.90
2019-04-13T03:48:42.089Z,6.67
2019-04-13T03:53:48.951Z,8.23
2019-04-13T03:58:55.446Z,7.40
2019-04-13T04:04:00.840Z,7.73
2019-04-13T04:09:08.376Z,7.03
2019-04-13T04:14:14.832Z,7.17
2019-04-13T04:19:21.072Z,9.23
2019-04-13T04:24:26.807Z,8.30
2019-04-13T04:29:35.113Z,10.33
2019-04-13T04:34:42.897Z,11.53
2019-04-13T04:39:49.728Z,10.87
2019-04-13T04:44:55.410Z,12.03
2019-04-13T04:50:01.759Z,11.33
2019-04-13T04:55:08.769Z,10.00
2019-04-13T05:00:15.296Z,11.40
2019-04-13T05:05:21.597Z,10.63
2019-04-13T05:10:27.570Z,12.80
2019-04-13T05:15:33.571Z,12.17
2019-04-13T05:20:40.135Z,10.87
2019-04-13T05:25:45.739Z,11.23
2019-04-13T05:30:52.568Z,9.67
2019-04-13T05:35:59.920Z,12.83
2019-04-13T05:41:05.450Z,10.87
2019-04-13T05:46:12.280Z,10.20
2019-04-13T05:51:18.896Z,10.83
2019-04-13T05:56:25.729Z,10.43
2019-04-13T06:01:32.472Z,10.60
2019-04-13T06:06:38.958Z,10.13
2019-04-13T06:11:55.228Z,11.90
2019-04-13T06:17:00.909Z,10.33
2019-04-13T06:22:07.337Z,13.60
2019-04-13T06:27:14.808Z,8.47
2019-04-13T06:32:57.635Z,10.20
2019-04-13T06:38:03.500Z,8.47
2019-04-13T06:43:12.256Z,8.83
2019-04-13T06:48:18.138Z,8.10
2019-04-13T06:53:26.594Z,8.87
2019-04-13T06:58:33.500Z,10.63
2019-04-13T07:03:40.335Z,11.07
2019-04-13T07:09:12.036Z,9.17
2019-04-13T07:14:26.533Z,9.63
2019-04-13T07:19:36.261Z,8.60
2019-04-13T07:24:42.336Z,8.00
2019-04-13T07:29:48.631Z,9.70
2019-04-13T07:34:55.065Z,9.33
2019-04-13T07:40:02.271Z,8.37
2019-04-13T07:45:45.564Z,9.87
2019-04-13T07:51:06.057Z,8.73
2019-04-13T07:56:31.208Z,9.60
2019-04-13T08:01:36.041Z,8.43
2019-04-13T08:06:42.484Z,8.30
2019-04-13T08:11:47.866Z,8.83
2019-04-13T08:16:54.487Z,8.60
2019-04-13T08:22:03.854Z,9.57
2019-04-13T08:27:11.045Z,8.33
2019-04-13T08:32:17.464Z,9.80
2019-04-13T08:37:23.674Z,9.13
2019-04-13T08:42:30.952Z,11.63
2019-04-13T08:47:36.776Z,13.93
2019-04-13T08:52:42.828Z,9.67
2019-04-13T08:57:50.296Z,7.93
2019-04-13T09:02:58.088Z,7.37
2019-04-13T09:08:04.440Z,9.83
2019-04-13T09:13:10.950Z,8.07
2019-04-13T09:18:33.859Z,7.63
2019-04-13T09:23:43.090Z,8.47
2019-04-13T09:28:47.660Z,9.13
2019-04-13T09:33:54.386Z,8.10
2019-04-13T09:39:01.656Z,7.47
2019-04-13T09:44:15.464Z,6.90
2019-04-13T09:49:21.540Z,7.37
2019-04-13T09:54:27.709Z,8.73
2019-04-13T09:59:34.139Z,7.20
2019-04-13T10:04:41.173Z,7.93
2019-04-13T10:09:48.548Z,6.60
2019-04-13T10:15:02.447Z,7.77
2019-04-13T10:20:10.499Z,7.73
2019-04-13T10:25:15.818Z,6.97
2019-04-13T10:30:24.544Z,8.17
2019-04-13T10:35:30.600Z,8.17
2019-04-13T10:40:36.988Z,8.83
2019-04-13T10:46:01.191Z,8.20
2019-04-13T10:51:25.037Z,9.40
2019-04-13T10:56:35.123Z,7.73
2019-04-13T11:01:41.542Z,9.33
2019-04-13T11:06:47.695Z,9.00
2019-04-13T11:11:54.453Z,8.53
2019-04-13T11:17:01.293Z,9.53
2019-04-13T11:22:07.881Z,7.80
2019-04-13T11:27:14.954Z,7.97
2019-04-13T11:32:21.285Z,6.47
2019-04-13T11:37:27.992Z,6.13
2019-04-13T11:42:52.751Z,7.00
2019-04-13T11:48:31.078Z,4.50
2019-04-13T11:53:39.159Z,5.17
2019-04-13T11:58:45.640Z,5.00
2019-04-13T12:03:57.587Z,4.10
2019-04-13T12:09:19.654Z,4.20
2019-04-13T12:14:51.844Z,4.03
2019-04-13T12:20:03.559Z,4.47
2019-04-13T12:25:10.242Z,5.03
2019-04-13T12:30:22.750Z,6.20
2019-04-13T12:35:28.435Z,5.50
2019-04-13T12:40:37.857Z,6.10
2019-04-13T12:45:44.683Z,5.63
2019-04-13T12:50:52.720Z,5.13
2019-04-13T12:55:59.461Z,4.00
2019-04-13T13:01:12.955Z,4.23
2019-04-13T13:06:19.517Z,3.53
2019-04-13T13:11:25.078Z,3.87
2019-04-13T13:16:33.982Z,4.03
2019-04-13T13:21:41.052Z,3.63
2019-04-13T13:26:51.789Z,3.67
2019-04-13T13:31:55.012Z,4.20
2019-04-13T13:37:01.123Z,4.07
2019-04-13T13:42:07.999Z,4.00
2019-04-13T13:47:14.046Z,3.40
2019-04-13T13:52:19.747Z,4.00
2019-04-13T13:57:25.212Z,3.97
2019-04-13T14:02:34.659Z,4.90
2019-04-13T14:07:40.652Z,8.10
2019-04-13T14:12:47.599Z,8.00
2019-04-13T14:17:55.447Z,7.40
2019-04-13T14:23:01.874Z,6.63
2019-04-13T14:28:07.682Z,7.33
2019-04-13T14:33:14.528Z,7.40
2019-04-13T14:38:22.824Z,7.80
2019-04-13T14:43:37.934Z,7.87
2019-04-13T14:48:44.155Z,8.30
2019-04-13T14:53:52.411Z,8.83
2019-04-13T14:58:59.106Z,8.33
2019-04-13T15:04:04.568Z,8.40
2019-04-13T15:09:10.149Z,8.60
2019-04-13T15:14:28.149Z,8.07
2019-04-13T15:19:41.361Z,10.97
2019-04-13T15:24:43.519Z,9.37
2019-04-13T15:29:49.777Z,8.87
2019-04-13T15:34:57.777Z,7.83
2019-04-13T15:40:04.595Z,8.50
2019-04-13T15:45:11.796Z,8.53
2019-04-13T15:50:19.942Z,8.97
2019-04-13T15:55:25.897Z,9.20
2019-04-13T16:00:32.193Z,9.97
2019-04-13T16:05:39.486Z,10.83
2019-04-13T16:10:52.832Z,10.43
2019-04-13T16:16:07.157Z,11.30
2019-04-13T16:21:19.523Z,11.23
2019-04-13T16:26:28.038Z,10.83
2019-04-13T16:31:57.163Z,12.30
2019-04-13T16:37:21.342Z,11.53
2019-04-13T16:42:31.263Z,11.40
2019-04-13T16:47:51.682Z,11.63
2019-04-13T16:53:28.743Z,11.63
2019-04-13T16:59:03.553Z,11.80
2019-04-13T17:04:47.000Z,11.17
2019-04-13T17:09:54.251Z,11.17
2019-04-13T17:15:21.294Z,12.33
2019-04-13T17:20:43.725Z,13.67
2019-04-13T17:26:15.538Z,12.90
2019-04-13T17:31:30.614Z,11.87
2019-04-13T17:36:42.022Z,12.47
2019-04-13T17:42:10.182Z,10.70
2019-04-13T17:47:47.305Z,13.00
2019-04-13T17:53:15.828Z,12.43
2019-04-13T17:58:39.632Z,14.93
2019-04-13T18:04:04.832Z,13.37
2019-04-13T18:09:25.088Z,12.43
2019-04-13T18:15:03.389Z,12.50
2019-04-13T18:20:11.407Z,13.23
2019-04-13T18:25:30.966Z,13.20
2019-04-13T18:30:32.082Z,13.10
2019-04-13T18:35:33.336Z,12.67
2019-04-13T18:40:40.780Z,11.97
2019-04-13T18:51:51.346Z,12.47
2019-04-13T18:56:58.274Z,13.77
2019-04-13T19:02:05.953Z,13.03
2019-04-13T19:07:12.313Z,10.37
2019-04-13T19:12:22.733Z,10.20
2019-04-13T19:17:36.424Z,11.03
2019-04-13T19:22:44.606Z,11.67
2019-04-13T19:27:51.948Z,10.47
2019-04-13T19:32:57.999Z,10.30
2019-04-13T19:38:11.316Z,11.37
2019-04-13T19:43:17.296Z,11.80
2019-04-13T19:48:23.849Z,10.83
2019-04-13T19:53:56.231Z,11.30
2019-04-13T19:59:01.711Z,13.47
2019-04-13T20:04:08.108Z,12.00
2019-04-13T20:09:14.546Z,14.53
2019-04-13T20:14:22.773Z,13.57
2019-04-13T20:19:44.035Z,14.67
2019-04-13T20:24:49.834Z,12.40
2019-04-13T20:29:58.043Z,13.30
2019-04-13T20:35:06.418Z,14.40
2019-04-13T20:40:22.628Z,12.37
2019-04-13T20:45:30.716Z,14.10
2019-04-13T20:50:36.952Z,12.87
2019-04-13T20:55:45.833Z,12.20
2019-04-13T21:00:53.560Z,12.67
2019-04-13T21:06:00.045Z,13.90
2019-04-13T21:11:07.513Z,15.20
2019-04-13T21:16:15.684Z,15.93
2019-04-13T21:21:25.844Z,13.47
2019-04-13T21:26:34.850Z,11.90
2019-04-13T21:31:41.680Z,12.97
2019-04-13T21:36:47.958Z,14.43
2019-04-13T21:41:54.828Z,13.90
2019-04-13T21:47:01.588Z,14.13
2019-04-13T21:52:28.100Z,14.80
2019-04-13T21:57:35.086Z,13.30
2019-04-13T22:02:42.196Z,14.27
2019-04-13T22:07:48.490Z,13.47
2019-04-13T22:12:56.729Z,12.20
2019-04-13T22:18:03.902Z,13.83
2019-04-13T22:23:10.809Z,14.50
2019-04-13T22:28:18.018Z,12.33
2019-04-13T22:33:24.943Z,13.53
2019-04-13T22:38:30.486Z,15.33
2019-04-13T22:43:36.919Z,14.40
2019-04-13T22:49:00.182Z,12.73
2019-04-13T22:54:25.855Z,13.53
2019-04-13T22:59:31.983Z,15.80
2019-04-13T23:04:38.389Z,14.97
2019-04-13T23:09:47.452Z,13.87
2019-04-13T23:15:04.429Z,13.93
2019-04-13T23:20:01.378Z,15.30
2019-04-13T23:25:07.474Z,13.83
2019-04-13T23:30:13.727Z,14.37
2019-04-13T23:35:19.478Z,15.47
2019-04-13T23:40:25.037Z,13.60
2019-04-13T23:45:36.801Z,16.60
2019-04-13T23:50:41.914Z,17.17
2019-04-13T23:55:57.546Z,17.43
